Time;durP1;ratioP1;P1;durP2;ratioP2;P2;SDS_P1;SDS_P2;PMS_P1;PMS_P2;Temp;Humidity;BMP_temperature;BMP_pressure;BME280_temperature;BME280_humidity;BME280_pressure;Samples;Min_cycle;Max_cycle;Signal;HPM_P1;HPM_P2
2023/05/09 00:00:41;;;;;;;51.72;29.20;;;15.10;99.90;;;;;;5053099;28;20051;-59
2023/05/09 00:03:07;;;;;;;54.97;29.50;;;15.20;99.90;;;;;;5067784;28;20048;-59
2023/05/09 00:05:33;;;;;;;50.42;30.35;;;15.10;99.90;;;;;;5052893;28;20433;-60
2023/05/09 00:07:59;;;;;;;46.30;28.17;;;15.10;99.90;;;;;;5053134;28;20033;-59
2023/05/09 00:10:26;;;;;;;50.30;30.83;;;15.20;99.90;;;;;;5053172;28;20036;-59
2023/05/09 00:12:52;;;;;;;46.13;29.17;;;15.10;99.90;;;;;;5068576;28;20037;-58
2023/05/09 00:15:18;;;;;;;48.42;28.95;;;15.10;99.90;;;;;;5052580;28;20037;-59
2023/05/09 00:17:44;;;;;;;56.03;31.05;;;15.10;99.90;;;;;;5052682;28;20547;-60
2023/05/09 00:20:11;;;;;;;46.10;28.08;;;15.10;99.90;;;;;;5053232;28;20041;-60
2023/05/09 00:22:40;;;;;;;53.28;30.50;;;15.10;99.90;;;;;;5051624;28;20072;-59
2023/05/09 00:25:07;;;;;;;47.30;29.83;;;15.10;99.90;;;;;;5052350;28;20614;-59
2023/05/09 00:27:33;;;;;;;52.03;32.17;;;15.10;99.90;;;;;;5052362;28;20436;-58
2023/05/09 00:29:59;;;;;;;52.25;31.17;;;15.10;99.90;;;;;;5055296;28;20072;-62
2023/05/09 00:32:25;;;;;;;52.25;30.42;;;15.10;99.90;;;;;;5053617;28;20124;-59
2023/05/09 00:34:51;;;;;;;49.20;29.25;;;15.10;99.90;;;;;;5053983;28;20044;-59
2023/05/09 00:37:18;;;;;;;47.38;28.77;;;15.10;99.90;;;;;;5052041;28;20048;-59
2023/05/09 00:39:44;;;;;;;46.70;29.17;;;15.10;99.90;;;;;;5052298;28;20488;-58
2023/05/09 00:42:10;;;;;;;49.58;29.48;;;15.10;99.90;;;;;;5065634;28;20124;-60
2023/05/09 00:44:36;;;;;;;50.95;28.92;;;15.10;99.90;;;;;;5051008;28;20124;-59
2023/05/09 00:47:02;;;;;;;45.00;28.55;;;15.00;99.90;;;;;;5050282;28;20040;-59
2023/05/09 00:49:28;;;;;;;43.05;27.45;;;15.00;99.90;;;;;;5051423;28;20044;-59
2023/05/09 00:51:54;;;;;;;47.08;28.67;;;15.00;99.90;;;;;;5051696;28;20059;-60
2023/05/09 00:54:20;;;;;;;43.38;26.35;;;15.00;99.90;;;;;;5049301;28;20036;-60
2023/05/09 00:56:46;;;;;;;40.72;26.40;;;15.00;99.90;;;;;;5051939;28;20037;-59
2023/05/09 00:59:11;;;;;;;47.28;28.25;;;14.90;99.90;;;;;;5052571;28;20067;-60
2023/05/09 01:01:37;;;;;;;45.28;27.70;;;14.90;99.90;;;;;;5048269;28;20376;-58
2023/05/09 01:04:03;;;;;;;44.75;28.10;;;14.90;99.90;;;;;;5047717;28;20060;-59
2023/05/09 01:06:41;;;;;;;46.08;28.17;;;14.90;99.90;;;;;;5054084;28;20040;-58
2023/05/09 01:09:12;;;;;;;43.85;27.52;;;14.80;99.90;;;;;;5050299;28;20098;-60
2023/05/09 01:11:54;;;;;;;50.90;29.80;;;14.70;99.90;;;;;;5050479;28;20175;-59
2023/05/09 01:14:35;;;;;;;52.10;30.47;;;14.70;99.90;;;;;;5051211;28;20064;-59
2023/05/09 01:17:19;;;;;;;47.20;28.23;;;14.70;99.90;;;;;;5050546;28;20061;-59
2023/05/09 01:20:17;;;;;;;46.85;27.52;;;14.60;99.90;;;;;;5051973;28;20694;-60
2023/05/09 01:22:51;;;;;;;46.67;27.50;;;14.70;99.90;;;;;;5052297;28;20403;-61
2023/05/09 01:25:42;;;;;;;45.67;27.45;;;14.70;99.90;;;;;;5052019;28;20049;-59
2023/05/09 01:28:34;;;;;;;45.45;27.30;;;14.70;99.90;;;;;;5051300;28;20063;-59
2023/05/09 01:31:00;;;;;;;49.73;28.97;;;14.70;99.90;;;;;;5051146;28;20496;-59
2023/05/09 01:33:26;;;;;;;47.00;27.75;;;14.70;99.90;;;;;;5051104;28;20041;-59
2023/05/09 01:35:58;;;;;;;51.53;30.00;;;14.70;99.90;;;;;;5051317;28;20041;-59
2023/05/09 01:38:24;;;;;;;42.27;25.63;;;14.70;99.90;;;;;;5051607;28;20396;-60
2023/05/09 01:40:53;;;;;;;42.97;28.08;;;14.70;99.90;;;;;;5051274;28;20263;-59
2023/05/09 01:43:20;;;;;;;51.88;30.00;;;14.70;99.90;;;;;;5050454;28;20480;-58
2023/05/09 01:45:47;;;;;;;48.50;28.70;;;14.60;99.90;;;;;;5051339;28;20043;-60
2023/05/09 01:48:14;;;;;;;50.72;29.92;;;14.60;99.90;;;;;;5052186;28;20036;-59
2023/05/09 01:50:42;;;;;;;43.50;27.15;;;14.60;99.90;;;;;;5050747;28;20049;-60
2023/05/09 01:53:10;;;;;;;40.95;26.95;;;14.60;99.90;;;;;;5050450;28;20040;-59
2023/05/09 01:55:38;;;;;;;49.42;28.80;;;14.60;99.90;;;;;;5066363;28;20045;-59
2023/05/09 01:58:04;;;;;;;49.28;30.92;;;14.50;99.90;;;;;;5051089;28;20049;-58
2023/05/09 02:00:33;;;;;;;47.50;28.13;;;14.40;99.90;;;;;;5050795;28;20475;-61
2023/05/09 02:02:59;;;;;;;48.60;28.13;;;14.50;99.90;;;;;;5051164;28;20049;-61
2023/05/09 02:05:27;;;;;;;46.42;28.17;;;14.40;99.90;;;;;;5051248;28;20045;-59
2023/05/09 02:07:57;;;;;;;48.72;28.17;;;14.40;99.90;;;;;;5050631;28;20037;-60
2023/05/09 02:10:24;;;;;;;48.33;28.40;;;14.50;99.90;;;;;;5048898;28;20040;-60
2023/05/09 02:12:50;;;;;;;49.83;29.35;;;14.50;99.90;;;;;;5050574;28;20037;-58
2023/05/09 02:15:16;;;;;;;46.72;28.48;;;14.50;99.90;;;;;;5046588;28;20039;-60
2023/05/09 02:17:42;;;;;;;52.17;28.80;;;14.50;99.90;;;;;;5049587;28;20496;-61
2023/05/09 02:20:12;;;;;;;47.83;28.23;;;14.50;99.90;;;;;;5049856;28;20033;-60
2023/05/09 02:22:40;;;;;;;48.00;27.80;;;14.60;99.90;;;;;;5049467;28;20037;-58
2023/05/09 02:25:06;;;;;;;49.42;29.20;;;14.60;99.90;;;;;;5049313;28;20492;-59
2023/05/09 02:27:37;;;;;;;50.58;29.35;;;14.60;99.90;;;;;;5048912;28;20384;-59
2023/05/09 02:30:07;;;;;;;46.75;29.15;;;14.60;99.90;;;;;;5048946;28;20052;-59
2023/05/09 02:32:34;;;;;;;46.42;28.05;;;14.60;99.90;;;;;;5047938;28;20122;-60
2023/05/09 02:35:01;;;;;;;48.72;28.58;;;14.50;99.90;;;;;;5048325;28;20112;-59
2023/05/09 02:37:27;;;;;;;51.63;31.35;;;14.60;99.90;;;;;;5047492;28;20045;-60
2023/05/09 02:39:54;;;;;;;49.55;29.55;;;14.50;99.90;;;;;;5048956;28;20040;-60
2023/05/09 02:42:25;;;;;;;51.55;29.80;;;14.40;99.90;;;;;;5047261;28;20052;-59
2023/05/09 02:44:52;;;;;;;42.90;25.40;;;14.50;99.90;;;;;;5065386;28;20036;-60
2023/05/09 02:47:18;;;;;;;45.00;26.73;;;14.40;99.90;;;;;;5045853;28;20159;-58
2023/05/09 02:49:44;;;;;;;39.70;25.08;;;14.40;99.90;;;;;;5047213;28;20049;-60
2023/05/09 02:52:10;;;;;;;42.17;25.13;;;14.40;99.90;;;;;;5044982;28;20047;-59
2023/05/09 02:54:37;;;;;;;42.70;25.58;;;14.40;99.90;;;;;;5047948;28;20395;-60
2023/05/09 02:57:03;;;;;;;37.42;24.13;;;14.30;99.90;;;;;;5047529;28;20036;-60
2023/05/09 02:59:28;;;;;;;45.00;26.70;;;14.30;99.90;;;;;;5049161;28;20068;-60
2023/05/09 03:01:54;;;;;;;42.15;26.23;;;14.30;99.90;;;;;;5046061;28;20036;-58
2023/05/09 03:04:20;;;;;;;40.42;25.42;;;14.30;99.90;;;;;;5048080;28;20110;-61
2023/05/09 03:06:45;;;;;;;46.17;26.80;;;14.30;99.90;;;;;;5046713;28;20056;-58
2023/05/09 03:09:11;;;;;;;46.53;28.85;;;14.30;99.90;;;;;;5048419;28;20044;-58
2023/05/09 03:11:37;;;;;;;50.33;27.60;;;14.20;99.90;;;;;;5048899;28;20033;-60
2023/05/09 03:14:03;;;;;;;46.80;28.98;;;14.20;99.90;;;;;;5044220;28;20037;-58
2023/05/09 03:16:29;;;;;;;45.95;27.30;;;14.20;99.90;;;;;;5048441;28;20450;-59
2023/05/09 03:18:55;;;;;;;46.85;28.60;;;14.20;99.90;;;;;;5062592;28;20391;-58
2023/05/09 03:21:21;;;;;;;48.65;27.98;;;14.20;99.90;;;;;;5046121;28;20664;-58
2023/05/09 03:23:47;;;;;;;48.95;28.75;;;14.20;99.90;;;;;;5046565;28;20044;-58
2023/05/09 03:26:12;;;;;;;49.30;28.92;;;14.20;99.90;;;;;;5048529;28;20040;-61
2023/05/09 03:28:39;;;;;;;51.45;29.77;;;14.20;99.90;;;;;;5046660;28;20571;-60
2023/05/09 03:31:05;;;;;;;51.30;28.75;;;14.20;99.90;;;;;;5046842;28;20045;-61
2023/05/09 03:33:30;;;;;;;48.65;29.27;;;14.20;99.90;;;;;;5048814;28;20037;-59
2023/05/09 03:35:56;;;;;;;52.80;31.02;;;14.20;99.90;;;;;;5048535;28;20021;-59
2023/05/09 03:38:24;;;;;;;48.25;29.55;;;14.20;99.90;;;;;;5045260;28;20156;-59
2023/05/09 03:40:52;;;;;;;48.85;29.23;;;14.20;99.90;;;;;;5048301;28;20045;-61
2023/05/09 03:43:18;;;;;;;62.83;34.33;;;14.20;99.90;;;;;;5060835;28;20052;-59
2023/05/09 03:45:44;;;;;;;64.32;34.33;;;14.20;99.90;;;;;;5061714;28;20045;-58
2023/05/09 03:48:10;;;;;;;66.90;36.22;;;14.20;99.90;;;;;;5047793;28;20083;-60
2023/05/09 03:50:36;;;;;;;67.22;35.53;;;14.20;99.90;;;;;;5030261;28;20143;-60
2023/05/09 03:53:02;;;;;;;70.32;37.38;;;14.20;99.90;;;;;;5048711;28;20391;-59
2023/05/09 03:55:28;;;;;;;72.30;37.53;;;14.20;99.90;;;;;;5047458;28;20099;-60
2023/05/09 03:57:54;;;;;;;74.20;37.70;;;14.20;99.90;;;;;;5047688;28;20380;-60
2023/05/09 04:00:20;;;;;;;76.50;39.75;;;14.20;99.90;;;;;;5047389;28;20029;-60
2023/05/09 04:02:47;;;;;;;72.75;38.78;;;14.20;99.90;;;;;;5047326;28;20049;-60
2023/05/09 04:05:13;;;;;;;73.38;38.72;;;14.20;99.90;;;;;;5047068;28;20642;-60
2023/05/09 04:07:39;;;;;;;82.75;40.95;;;14.30;99.90;;;;;;5046575;28;20040;-60
2023/05/09 04:10:05;;;;;;;77.78;39.50;;;14.20;99.90;;;;;;5044546;28;20045;-58
2023/05/09 04:12:31;;;;;;;77.40;39.90;;;14.20;99.90;;;;;;5049067;28;20396;-58
2023/05/09 04:14:56;;;;;;;71.75;39.90;;;14.20;99.90;;;;;;5048817;28;20048;-58
2023/05/09 04:17:22;;;;;;;69.22;37.03;;;14.20;99.90;;;;;;5047944;28;20025;-58
2023/05/09 04:19:47;;;;;;;70.93;37.95;;;14.20;99.90;;;;;;5048280;28;20047;-59
2023/05/09 04:22:13;;;;;;;87.22;41.30;;;14.20;99.90;;;;;;5048705;28;20064;-59
2023/05/09 04:24:39;;;;;;;75.05;38.92;;;14.20;99.90;;;;;;5045560;28;20036;-60
2023/05/09 04:27:05;;;;;;;82.22;40.28;;;14.30;99.90;;;;;;5047780;28;20793;-58
2023/05/09 04:29:31;;;;;;;74.55;39.95;;;14.30;99.90;;;;;;5050194;28;20188;-60
2023/05/09 04:31:56;;;;;;;68.28;38.53;;;14.30;99.90;;;;;;5051582;28;20072;-59
2023/05/09 04:34:22;;;;;;;79.75;40.85;;;14.30;99.90;;;;;;5052088;28;20157;-59
2023/05/09 04:36:48;;;;;;;72.57;39.65;;;14.30;99.90;;;;;;5051687;28;20029;-61
2023/05/09 04:39:13;;;;;;;70.63;40.28;;;14.30;99.90;;;;;;5050394;28;20072;-59
2023/05/09 04:41:39;;;;;;;66.85;38.92;;;14.30;99.90;;;;;;5051809;28;20059;-59
2023/05/09 04:44:05;;;;;;;64.82;38.85;;;14.30;99.90;;;;;;5051601;28;20040;-61
2023/05/09 04:46:30;;;;;;;64.50;38.00;;;14.30;99.90;;;;;;5051646;28;20052;-59
2023/05/09 04:48:56;;;;;;;65.10;38.28;;;14.40;99.90;;;;;;5050792;28;20040;-59
2023/05/09 04:51:22;;;;;;;62.40;37.75;;;14.40;99.90;;;;;;5052183;28;20041;-58
2023/05/09 04:53:47;;;;;;;69.00;40.20;;;14.40;99.90;;;;;;5050680;28;20759;-60
2023/05/09 04:56:13;;;;;;;57.53;36.30;;;14.40;99.90;;;;;;5051660;28;20116;-59
2023/05/09 04:58:39;;;;;;;60.33;37.05;;;14.40;99.90;;;;;;5051886;28;20132;-60
2023/05/09 05:01:05;;;;;;;65.78;38.05;;;14.40;99.90;;;;;;5050211;28;20068;-59
2023/05/09 05:03:31;;;;;;;62.53;37.53;;;14.40;99.90;;;;;;5051094;28;20060;-58
2023/05/09 05:05:57;;;;;;;62.47;37.92;;;14.40;99.90;;;;;;5052469;28;20057;-60
2023/05/09 05:08:23;;;;;;;61.88;38.55;;;14.50;99.90;;;;;;5051949;28;20036;-61
2023/05/09 05:10:48;;;;;;;65.72;39.88;;;14.50;99.90;;;;;;5052324;28;20035;-59
2023/05/09 05:13:15;;;;;;;61.28;37.83;;;14.50;99.90;;;;;;5052308;28;20058;-59
2023/05/09 05:15:41;;;;;;;61.92;38.58;;;14.60;99.90;;;;;;5052033;28;20037;-61
2023/05/09 05:18:06;;;;;;;62.45;37.55;;;14.60;99.90;;;;;;5051273;28;20115;-61
2023/05/09 05:20:32;;;;;;;65.38;39.78;;;14.60;99.90;;;;;;5051434;28;20136;-58
2023/05/09 05:22:58;;;;;;;65.22;40.38;;;14.60;99.90;;;;;;5051612;28;20395;-61
2023/05/09 05:25:24;;;;;;;64.25;39.42;;;14.70;99.90;;;;;;5051836;28;20452;-59
2023/05/09 05:27:50;;;;;;;64.60;39.08;;;14.70;99.90;;;;;;5051588;28;20041;-60
2023/05/09 05:30:16;;;;;;;64.65;40.50;;;14.70;99.90;;;;;;5050807;28;20555;-60
2023/05/09 05:32:42;;;;;;;67.03;41.40;;;14.70;99.90;;;;;;5051199;28;20106;-60
2023/05/09 05:35:10;;;;;;;73.05;43.42;;;14.80;99.90;;;;;;5050590;28;20365;-60
2023/05/09 05:37:37;;;;;;;73.65;43.80;;;14.70;99.90;;;;;;5049936;28;20112;-60
2023/05/09 05:40:04;;;;;;;74.35;43.00;;;14.80;99.90;;;;;;5048566;28;20095;-59
2023/05/09 05:42:30;;;;;;;73.20;42.55;;;14.80;99.90;;;;;;5051696;28;20045;-59
2023/05/09 05:44:56;;;;;;;70.72;42.45;;;14.80;99.90;;;;;;5051211;28;20037;-61
2023/05/09 05:47:22;;;;;;;73.82;42.78;;;14.80;99.90;;;;;;5050528;28;20078;-59
2023/05/09 05:49:47;;;;;;;82.55;45.15;;;14.90;99.90;;;;;;5047460;28;20051;-61
2023/05/09 05:52:13;;;;;;;79.03;45.47;;;14.90;99.90;;;;;;5048790;28;20039;-58
2023/05/09 05:54:39;;;;;;;79.50;44.78;;;15.00;99.90;;;;;;5049649;28;20543;-61
2023/05/09 05:57:04;;;;;;;83.97;47.33;;;15.00;99.90;;;;;;5050428;28;20033;-60
2023/05/09 05:59:30;;;;;;;79.13;45.85;;;15.00;99.90;;;;;;5048956;28;20122;-59
2023/05/09 06:01:56;;;;;;;73.90;42.80;;;15.10;99.90;;;;;;5065453;28;20411;-58
2023/05/09 06:04:21;;;;;;;82.85;47.40;;;15.10;99.90;;;;;;5048653;28;21224;-58
2023/05/09 06:06:47;;;;;;;80.95;47.80;;;15.20;99.90;;;;;;5049684;28;20041;-59
2023/05/09 06:09:13;;;;;;;79.32;45.95;;;15.20;99.90;;;;;;5050640;28;20044;-61
2023/05/09 06:11:38;;;;;;;78.75;43.22;;;15.10;99.90;;;;;;5046844;28;20052;-61
2023/05/09 06:14:04;;;;;;;82.13;45.15;;;15.20;99.90;;;;;;5050392;28;20033;-59
2023/05/09 06:16:29;;;;;;;78.85;46.55;;;15.20;99.90;;;;;;5044393;28;20060;-59
2023/05/09 06:18:55;;;;;;;78.20;44.92;;;15.20;99.90;;;;;;5047574;28;20392;-59
2023/05/09 06:21:21;;;;;;;84.50;45.42;;;15.20;99.90;;;;;;5047093;28;20040;-58
2023/05/09 06:23:46;;;;;;;79.75;43.78;;;15.30;99.90;;;;;;5045487;28;20044;-59
2023/05/09 06:26:13;;;;;;;82.40;45.38;;;15.30;99.90;;;;;;5050031;28;20044;-60
2023/05/09 06:28:39;;;;;;;80.53;46.17;;;15.30;99.90;;;;;;5049308;28;20076;-59
2023/05/09 06:31:05;;;;;;;74.63;42.67;;;15.40;99.90;;;;;;5049369;28;20456;-59
2023/05/09 06:33:30;;;;;;;75.43;42.95;;;15.40;99.90;;;;;;5049347;28;20045;-60
2023/05/09 06:35:58;;;;;;;72.63;43.55;;;15.40;99.90;;;;;;5046161;28;20047;-61
2023/05/09 06:38:24;;;;;;;72.10;42.60;;;15.40;99.90;;;;;;5046164;28;20063;-59
2023/05/09 06:40:49;;;;;;;78.95;43.80;;;15.50;99.90;;;;;;5049443;28;20028;-59
2023/05/09 06:43:15;;;;;;;69.47;41.35;;;15.50;99.90;;;;;;5049326;28;20041;-60
2023/05/09 06:45:40;;;;;;;76.95;43.50;;;15.50;99.90;;;;;;5048991;28;20029;-61
2023/05/09 06:48:06;;;;;;;71.72;41.85;;;15.60;99.90;;;;;;5049821;28;20039;-59
2023/05/09 06:50:32;;;;;;;74.35;42.72;;;15.60;99.90;;;;;;5049407;28;20032;-60
2023/05/09 06:52:57;;;;;;;73.78;42.65;;;15.70;99.90;;;;;;5048925;28;20456;-62
2023/05/09 06:55:23;;;;;;;70.60;41.85;;;15.80;99.90;;;;;;5049758;28;20038;-61
2023/05/09 06:57:49;;;;;;;65.47;39.22;;;15.80;99.90;;;;;;5049701;28;20029;-59
2023/05/09 07:00:15;;;;;;;70.00;40.00;;;15.80;99.90;;;;;;5050693;28;20037;-61
2023/05/09 07:02:40;;;;;;;69.05;40.10;;;15.90;99.90;;;;;;5050315;28;20136;-61
2023/05/09 07:05:08;;;;;;;66.68;39.58;;;16.00;99.90;;;;;;5048910;28;20140;-58
2023/05/09 07:07:34;;;;;;;69.57;40.35;;;16.00;99.90;;;;;;5050057;28;20392;-61
2023/05/09 07:10:00;;;;;;;63.67;39.20;;;16.10;99.90;;;;;;5049672;28;20041;-61
2023/05/09 07:12:26;;;;;;;71.60;41.05;;;16.10;99.90;;;;;;5048104;28;20044;-59
2023/05/09 07:14:51;;;;;;;64.53;38.13;;;16.20;99.90;;;;;;5049406;28;20040;-60
2023/05/09 07:17:17;;;;;;;58.58;35.80;;;16.10;99.90;;;;;;5046698;28;20028;-59
2023/05/09 07:19:43;;;;;;;61.72;36.50;;;16.20;99.90;;;;;;5049099;28;20128;-60
2023/05/09 07:22:08;;;;;;;61.10;36.22;;;16.30;99.90;;;;;;5047471;28;20099;-60
2023/05/09 07:24:34;;;;;;;60.40;35.90;;;16.40;99.90;;;;;;5050131;28;20045;-60
2023/05/09 07:27:02;;;;;;;62.83;36.60;;;16.40;99.90;;;;;;5048472;28;20051;-58
2023/05/09 07:29:28;;;;;;;56.72;34.45;;;16.40;99.90;;;;;;5048802;28;20049;-60
2023/05/09 07:31:53;;;;;;;57.35;34.38;;;16.40;99.90;;;;;;5047094;28;20044;-60
2023/05/09 07:34:19;;;;;;;61.22;35.55;;;16.50;99.90;;;;;;5045658;28;20128;-62
2023/05/09 07:36:45;;;;;;;55.50;34.92;;;16.50;99.90;;;;;;5037930;28;20099;-60
2023/05/09 07:39:10;;;;;;;52.72;34.15;;;16.50;99.90;;;;;;5048465;28;20040;-58
2023/05/09 07:41:36;;;;;;;56.38;34.13;;;16.50;99.90;;;;;;5048939;28;20055;-60
2023/05/09 07:44:02;;;;;;;58.53;34.95;;;16.40;99.90;;;;;;5050408;28;20041;-60
2023/05/09 07:46:27;;;;;;;59.28;34.75;;;16.40;99.90;;;;;;5050001;28;20041;-60
2023/05/09 07:48:53;;;;;;;55.45;34.55;;;16.40;99.90;;;;;;5049653;28;20063;-60
2023/05/09 07:51:19;;;;;;;57.08;35.08;;;16.50;99.90;;;;;;5049836;28;20041;-60
2023/05/09 07:53:44;;;;;;;52.97;34.00;;;16.40;99.90;;;;;;5050061;28;20037;-62
2023/05/09 07:56:10;;;;;;;52.38;33.40;;;16.50;99.90;;;;;;5048278;28;20083;-59
2023/05/09 07:58:36;;;;;;;52.75;32.72;;;16.50;99.90;;;;;;5051732;28;20040;-60
2023/05/09 08:01:01;;;;;;;55.55;34.05;;;16.50;99.90;;;;;;5050806;28;20473;-61
2023/05/09 08:03:27;;;;;;;52.42;32.95;;;16.50;99.90;;;;;;5051118;28;20468;-60
2023/05/09 08:05:54;;;;;;;52.47;31.48;;;16.60;99.90;;;;;;5050039;28;20432;-61
2023/05/09 08:08:20;;;;;;;51.72;32.88;;;16.60;99.90;;;;;;5050952;28;20053;-61
2023/05/09 08:10:46;;;;;;;50.60;31.48;;;16.70;99.90;;;;;;5047669;28;20037;-61
2023/05/09 08:13:11;;;;;;;46.65;31.17;;;16.70;99.90;;;;;;5051632;28;20045;-59
2023/05/09 08:15:37;;;;;;;47.13;30.92;;;16.70;99.90;;;;;;5051947;28;20114;-59
2023/05/09 08:18:03;;;;;;;45.42;29.88;;;16.80;99.90;;;;;;5052162;28;20045;-60
2023/05/09 08:20:30;;;;;;;49.03;30.90;;;16.90;99.90;;;;;;5053499;28;20071;-59
2023/05/09 08:22:56;;;;;;;43.13;29.63;;;17.00;99.90;;;;;;5048727;28;20045;-61
2023/05/09 08:25:22;;;;;;;40.78;26.65;;;17.10;99.90;;;;;;5050674;28;20518;-61
2023/05/09 08:27:47;;;;;;;40.58;27.10;;;17.20;99.90;;;;;;5050127;28;20037;-61
2023/05/09 08:30:13;;;;;;;40.85;25.52;;;17.20;99.90;;;;;;5051746;28;20052;-63
2023/05/09 08:32:39;;;;;;;40.45;26.15;;;17.20;99.90;;;;;;5050858;28;20040;-62
2023/05/09 08:35:07;;;;;;;38.83;25.40;;;17.20;99.90;;;;;;5052958;28;20443;-61
2023/05/09 08:37:34;;;;;;;34.05;23.08;;;17.20;99.90;;;;;;5066863;28;20044;-61
2023/05/09 08:39:59;;;;;;;35.83;24.17;;;17.10;99.90;;;;;;5051593;28;20091;-59
2023/05/09 08:42:27;;;;;;;33.97;22.83;;;17.00;99.90;;;;;;5052189;28;20075;-61
2023/05/09 08:44:52;;;;;;;33.65;23.05;;;17.00;99.90;;;;;;5065791;28;20088;-59
2023/05/09 08:47:20;;;;;;;34.33;23.17;;;17.00;99.90;;;;;;5051771;28;20088;-62
2023/05/09 08:49:46;;;;;;;31.05;22.23;;;17.10;99.90;;;;;;5051217;28;20510;-60
2023/05/09 08:52:13;;;;;;;28.35;20.73;;;17.20;99.90;;;;;;5050696;28;20116;-62
2023/05/09 08:54:39;;;;;;;29.05;20.40;;;17.20;99.90;;;;;;5051713;28;20037;-62
2023/05/09 08:57:05;;;;;;;28.50;19.83;;;17.30;99.90;;;;;;5051805;28;20126;-60
2023/05/09 08:59:35;;;;;;;29.02;20.02;;;17.30;99.90;;;;;;5052742;28;20073;-60
2023/05/09 09:02:04;;;;;;;26.80;19.20;;;17.40;99.90;;;;;;5051477;28;20033;-61
2023/05/09 09:04:30;;;;;;;26.85;18.92;;;17.50;99.90;;;;;;5053499;28;20044;-60
2023/05/09 09:06:56;;;;;;;28.23;19.35;;;17.60;99.90;;;;;;5052607;28;20415;-61
2023/05/09 09:09:23;;;;;;;27.88;19.33;;;17.70;99.90;;;;;;5049728;28;20049;-61
2023/05/09 09:11:49;;;;;;;26.08;18.83;;;17.80;99.90;;;;;;5051176;28;20094;-60
2023/05/09 09:14:22;;;;;;;26.40;18.10;;;18.00;99.90;;;;;;5052512;28;20048;-60
2023/05/09 09:16:48;;;;;;;25.02;18.15;;;18.00;99.90;;;;;;5067204;28;20052;-61
2023/05/09 09:19:16;;;;;;;25.38;18.27;;;18.10;99.90;;;;;;5052333;28;20040;-59
2023/05/09 09:21:45;;;;;;;24.45;18.23;;;18.10;99.90;;;;;;5052001;28;20555;-62
2023/05/09 09:24:12;;;;;;;19.83;16.27;;;18.20;99.90;;;;;;5052593;28;20559;-62
2023/05/09 09:26:46;;;;;;;20.35;15.27;;;18.30;99.90;;;;;;5053120;28;20407;-60
2023/05/09 09:29:13;;;;;;;20.77;15.07;;;18.40;99.90;;;;;;5052898;28;20084;-59
2023/05/09 09:31:42;;;;;;;21.67;15.18;;;18.50;99.90;;;;;;5051418;28;20036;-61
2023/05/09 09:34:08;;;;;;;19.77;14.55;;;18.50;99.90;;;;;;5049917;28;20063;-59
2023/05/09 09:36:35;;;;;;;20.60;15.15;;;18.50;99.90;;;;;;5053093;28;20040;-61
2023/05/09 09:39:03;;;;;;;20.00;15.77;;;18.60;99.90;;;;;;5051289;28;20087;-61
2023/05/09 09:41:33;;;;;;;21.75;14.68;;;18.50;99.90;;;;;;5051280;28;20532;-60
2023/05/09 09:44:09;;;;;;;19.55;13.40;;;18.50;99.90;;;;;;5046887;28;20041;-60
2023/05/09 09:46:40;;;;;;;16.13;13.25;;;18.60;99.90;;;;;;5034048;28;20048;-59
2023/05/09 09:49:17;;;;;;;17.67;13.95;;;18.80;99.90;;;;;;5053071;28;20460;-60
2023/05/09 09:51:43;;;;;;;18.13;14.80;;;18.80;99.90;;;;;;5050984;28;20103;-61
2023/05/09 09:54:11;;;;;;;18.98;14.45;;;18.90;99.90;;;;;;5067805;28;20487;-60
2023/05/09 09:56:47;;;;;;;18.08;13.93;;;19.00;99.90;;;;;;5048551;28;20044;-62
2023/05/09 09:59:18;;;;;;;18.48;13.77;;;19.00;99.90;;;;;;5047086;28;20135;-60
2023/05/09 10:02:05;;;;;;;18.40;13.27;;;19.00;99.90;;;;;;5051214;28;20037;-61
2023/05/09 10:04:37;;;;;;;16.65;13.43;;;19.00;99.90;;;;;;5051165;28;20163;-60
2023/05/09 10:07:05;;;;;;;17.30;13.80;;;19.00;99.90;;;;;;5051731;28;20104;-60
2023/05/09 10:09:32;;;;;;;19.08;14.32;;;19.10;99.90;;;;;;5048516;28;20047;-61
2023/05/09 10:12:02;;;;;;;16.67;13.23;;;19.10;99.90;;;;;;5051057;28;20094;-61
2023/05/09 10:14:30;;;;;;;15.00;12.73;;;19.20;99.90;;;;;;5051402;28;20028;-60
2023/05/09 10:16:57;;;;;;;14.73;12.18;;;19.10;99.90;;;;;;5050965;28;20044;-61
2023/05/09 10:19:25;;;;;;;18.13;13.98;;;19.20;99.90;;;;;;5049727;28;20123;-60
2023/05/09 10:21:53;;;;;;;17.80;13.95;;;19.40;99.90;;;;;;5050544;28;20403;-60
2023/05/09 10:24:42;;;;;;;17.88;14.73;;;19.30;99.90;;;;;;5066489;28;20048;-60
2023/05/09 10:27:11;;;;;;;18.05;14.05;;;19.30;99.90;;;;;;5049305;28;20039;-59
2023/05/09 10:29:43;;;;;;;17.17;14.32;;;19.20;99.90;;;;;;5050691;28;20503;-61
2023/05/09 10:32:26;;;;;;;17.38;14.48;;;19.00;99.90;;;;;;5051922;28;20052;-61
2023/05/09 10:34:57;;;;;;;18.23;14.82;;;18.90;99.90;;;;;;5049848;28;20045;-59
2023/05/09 10:37:23;;;;;;;18.35;14.05;;;18.90;99.90;;;;;;5046115;28;20230;-60
2023/05/09 10:39:54;;;;;;;16.85;13.63;;;18.90;99.90;;;;;;5049790;28;20036;-61
2023/05/09 10:42:21;;;;;;;17.08;13.93;;;18.80;99.90;;;;;;5048855;28;20044;-60
2023/05/09 10:44:48;;;;;;;16.52;13.68;;;18.70;99.90;;;;;;5049259;28;20052;-59
2023/05/09 10:47:14;;;;;;;16.00;13.90;;;18.80;99.90;;;;;;5049891;28;20041;-59
2023/05/09 10:49:41;;;;;;;17.55;14.45;;;18.90;99.90;;;;;;5050384;28;20115;-62
2023/05/09 10:52:07;;;;;;;17.83;14.20;;;18.90;99.90;;;;;;5050299;28;20036;-59
2023/05/09 10:54:36;;;;;;;17.60;13.40;;;19.00;99.90;;;;;;5050552;28;20025;-61
2023/05/09 10:57:04;;;;;;;18.42;13.98;;;19.10;99.90;;;;;;5050237;28;20032;-60
2023/05/09 10:59:41;;;;;;;16.73;13.80;;;19.20;99.90;;;;;;5065993;28;20507;-60
2023/05/09 11:02:17;;;;;;;16.23;13.18;;;19.10;99.90;;;;;;5049073;28;20500;-61
2023/05/09 11:04:44;;;;;;;16.92;13.77;;;19.00;99.90;;;;;;5046857;28;20080;-60
2023/05/09 11:07:24;;;;;;;16.52;13.48;;;18.80;99.90;;;;;;5048630;28;20047;-60
2023/05/09 11:09:52;;;;;;;15.15;13.40;;;18.70;99.90;;;;;;5061278;28;20132;-60
2023/05/09 11:12:20;;;;;;;17.55;13.77;;;18.80;99.90;;;;;;5047839;28;20116;-60
2023/05/09 11:14:48;;;;;;;19.20;14.20;;;18.80;99.90;;;;;;5046158;28;20060;-59
2023/05/09 11:17:19;;;;;;;19.20;14.63;;;18.80;99.90;;;;;;5047773;28;20420;-61
2023/05/09 11:19:45;;;;;;;17.40;14.60;;;18.80;99.90;;;;;;5047531;28;20037;-60
2023/05/09 11:22:16;;;;;;;20.27;15.52;;;18.90;99.90;;;;;;5048041;28;20199;-60
2023/05/09 11:24:46;;;;;;;16.98;14.15;;;18.90;99.90;;;;;;5048223;28;20029;-60
2023/05/09 11:27:20;;;;;;;17.83;13.80;;;19.00;99.90;;;;;;5064269;28;20083;-61
2023/05/09 11:29:51;;;;;;;15.93;13.43;;;19.10;99.90;;;;;;5048447;28;20128;-60
2023/05/09 11:32:17;;;;;;;17.75;13.07;;;19.20;99.90;;;;;;5049938;28;20044;-62
2023/05/09 11:34:46;;;;;;;14.93;13.00;;;19.30;99.90;;;;;;5050189;28;20033;-61
2023/05/09 11:37:15;;;;;;;15.60;12.30;;;19.30;99.90;;;;;;5045089;28;20137;-59
2023/05/09 11:40:03;;;;;;;13.32;11.93;;;19.40;99.90;;;;;;5047987;28;20116;-62
2023/05/09 11:42:30;;;;;;;16.85;11.57;;;19.50;99.90;;;;;;5050053;28;20480;-60
2023/05/09 11:44:57;;;;;;;13.77;11.75;;;19.50;99.90;;;;;;5050090;28;20403;-60
2023/05/09 11:47:23;;;;;;;14.02;12.52;;;19.40;99.90;;;;;;5043870;28;20045;-61
2023/05/09 11:49:49;;;;;;;15.32;12.15;;;19.30;99.90;;;;;;5048322;28;20526;-60
2023/05/09 11:52:15;;;;;;;17.27;14.60;;;19.30;99.90;;;;;;5049062;28;20037;-61
2023/05/09 11:54:41;;;;;;;18.42;14.60;;;19.20;99.90;;;;;;5049841;28;20029;-58
2023/05/09 11:57:07;;;;;;;18.95;15.60;;;19.20;99.90;;;;;;5048202;28;20041;-62
2023/05/09 11:59:33;;;;;;;18.48;15.60;;;19.00;99.90;;;;;;5049464;28;20036;-60
2023/05/09 12:02:04;;;;;;;20.42;14.77;;;18.90;99.90;;;;;;5048415;28;20040;-62
2023/05/09 12:04:30;;;;;;;17.35;14.93;;;18.90;99.90;;;;;;5062287;28;20049;-61
2023/05/09 12:07:00;;;;;;;17.95;14.70;;;18.90;99.90;;;;;;5065371;28;20507;-61
2023/05/09 12:09:36;;;;;;;18.98;14.10;;;18.90;99.90;;;;;;5049431;28;20498;-60
2023/05/09 12:12:11;;;;;;;19.77;15.65;;;18.90;99.90;;;;;;5049612;28;20140;-61
2023/05/09 12:14:38;;;;;;;19.08;15.50;;;18.70;99.90;;;;;;5047511;28;20076;-61
2023/05/09 12:17:05;;;;;;;19.60;15.48;;;18.70;99.90;;;;;;5049490;28;20037;-62
2023/05/09 12:19:31;;;;;;;16.48;14.75;;;18.50;99.90;;;;;;5048897;28;20373;-60
2023/05/09 12:21:58;;;;;;;21.90;17.70;;;18.40;99.90;;;;;;5048280;28;20037;-61
2023/05/09 12:24:25;;;;;;;18.27;16.38;;;18.40;99.90;;;;;;5048945;28;20072;-60
2023/05/09 12:26:52;;;;;;;20.40;17.38;;;18.20;99.90;;;;;;5049177;28;20577;-59
2023/05/09 12:29:19;;;;;;;19.05;17.05;;;18.10;99.90;;;;;;5048441;28;20053;-61